<?xml version="1.0" encoding="UTF-8" standalone="no" ?>
<gpx xmlns="http://www.topografix.com/GPX/1/1" xmlns:xsi="http://www.w3.org/2001/XMLSchema-instance" xsi:schemaLocation="http://www.topografix.com/GPX/1/1 http://www.topografix.com/GPX/1/1/gpx.xsd" version="1.1" creator="VisuGPX - https://www.visugpx.com">
  <metadata>
    <name>J6 LePeu_IleMadame</name>
    <desc><![CDATA[LePeu_IleMadame 8.3km gnerando idor:18751802]]></desc>
  </metadata>
  <trk>
    <name><![CDATA[J6 Rochefort 2025]]></name>
    <desc><![CDATA[Le Peu - île Madame-18451802]]></desc>
    <extensions>
      <line xmlns="http://www.topografix.com/GPX/gpx_style/0/2">
        <color>0000FF</color>
        <width>4</width>
      </line>
    </extensions>
    <trkseg>
      <trkpt lat="45.94465" lon="-1.0981">
        <ele>3</ele>
        <time>2025-01-08T12:54:37Z</time>
      </trkpt>
      <trkpt lat="45.94464" lon="-1.0985">
        <ele>3</ele>
        <time>2025-01-08T12:54:59Z</time>
      </trkpt>
      <trkpt lat="45.9445" lon="-1.09887">
        <ele>2</ele>
        <time>2025-01-08T12:55:23Z</time>
      </trkpt>
      <trkpt lat="45.94452" lon="-1.09912">
        <ele>2</ele>
        <time>2025-01-08T12:55:37Z</time>
      </trkpt>
      <trkpt lat="45.94471" lon="-1.09946">
        <ele>2</ele>
        <time>2025-01-08T12:56:01Z</time>
      </trkpt>
      <trkpt lat="45.94483" lon="-1.09984">
        <ele>2</ele>
        <time>2025-01-08T12:56:24Z</time>
      </trkpt>
      <trkpt lat="45.94492" lon="-1.09987">
        <ele>2</ele>
        <time>2025-01-08T12:56:32Z</time>
      </trkpt>
      <trkpt lat="45.94507" lon="-1.09988">
        <ele>2</ele>
        <time>2025-01-08T12:56:44Z</time>
      </trkpt>
      <trkpt lat="45.94512" lon="-1.10001">
        <ele>2</ele>
        <time>2025-01-08T12:56:52Z</time>
      </trkpt>
      <trkpt lat="45.9452" lon="-1.09991">
        <ele>2</ele>
        <time>2025-01-08T12:57:00Z</time>
      </trkpt>
      <trkpt lat="45.9453" lon="-1.09976">
        <ele>1</ele>
        <time>2025-01-08T12:57:12Z</time>
      </trkpt>
      <trkpt lat="45.94553" lon="-1.09919">
        <ele>1</ele>
        <time>2025-01-08T12:57:49Z</time>
      </trkpt>
      <trkpt lat="45.94584" lon="-1.09882">
        <ele>1</ele>
        <time>2025-01-08T12:58:21Z</time>
      </trkpt>
      <trkpt lat="45.94586" lon="-1.09849">
        <ele>2</ele>
        <time>2025-01-08T12:58:39Z</time>
      </trkpt>
      <trkpt lat="45.94641" lon="-1.09794">
        <ele>2</ele>
        <time>2025-01-08T12:59:33Z</time>
      </trkpt>
      <trkpt lat="45.94725" lon="-1.09736">
        <ele>2</ele>
        <time>2025-01-08T13:00:48Z</time>
      </trkpt>
      <trkpt lat="45.94791" lon="-1.09712">
        <ele>2</ele>
        <time>2025-01-08T13:01:42Z</time>
      </trkpt>
      <trkpt lat="45.94825" lon="-1.09698">
        <ele>2</ele>
        <time>2025-01-08T13:02:10Z</time>
      </trkpt>
      <trkpt lat="45.94873" lon="-1.0967">
        <ele>2</ele>
        <time>2025-01-08T13:02:52Z</time>
      </trkpt>
      <trkpt lat="45.94897" lon="-1.09666">
        <ele>2</ele>
        <time>2025-01-08T13:03:11Z</time>
      </trkpt>
      <trkpt lat="45.9491" lon="-1.0964">
        <ele>2</ele>
        <time>2025-01-08T13:03:29Z</time>
      </trkpt>
      <trkpt lat="45.94928" lon="-1.0955">
        <ele>1</ele>
        <time>2025-01-08T13:04:21Z</time>
      </trkpt>
      <trkpt lat="45.94932" lon="-1.0952">
        <ele>1</ele>
        <time>2025-01-08T13:04:38Z</time>
      </trkpt>
      <trkpt lat="45.94925" lon="-1.09501">
        <ele>1</ele>
        <time>2025-01-08T13:04:50Z</time>
      </trkpt>
      <trkpt lat="45.94949" lon="-1.09455">
        <ele>1</ele>
        <time>2025-01-08T13:05:22Z</time>
      </trkpt>
      <trkpt lat="45.9498" lon="-1.09455">
        <ele>1.1</ele>
        <time>2025-01-08T13:05:47Z</time>
      </trkpt>
      <trkpt lat="45.95027" lon="-1.09485">
        <ele>1</ele>
        <time>2025-01-08T13:06:28Z</time>
      </trkpt>
      <trkpt lat="45.95067" lon="-1.09525">
        <ele>1</ele>
        <time>2025-01-08T13:07:07Z</time>
      </trkpt>
      <trkpt lat="45.95114" lon="-1.09591">
        <ele>1</ele>
        <time>2025-01-08T13:08:00Z</time>
      </trkpt>
      <trkpt lat="45.95172" lon="-1.09714">
        <ele>1</ele>
        <time>2025-01-08T13:09:23Z</time>
      </trkpt>
      <trkpt lat="45.95229" lon="-1.09854">
        <ele>1</ele>
        <time>2025-01-08T13:10:53Z</time>
      </trkpt>
      <trkpt lat="45.95278" lon="-1.10047">
        <ele>1</ele>
        <time>2025-01-08T13:12:47Z</time>
      </trkpt>
      <trkpt lat="45.9532" lon="-1.1016">
        <ele>1</ele>
        <time>2025-01-08T13:13:59Z</time>
      </trkpt>
      <trkpt lat="45.95345" lon="-1.10211">
        <ele>1.2</ele>
        <time>2025-01-08T13:14:33Z</time>
      </trkpt>
      <trkpt lat="45.95358" lon="-1.1025">
        <ele>1</ele>
        <time>2025-01-08T13:14:57Z</time>
      </trkpt>
      <trkpt lat="45.95379" lon="-1.10373">
        <ele>1.3</ele>
        <time>2025-01-08T13:16:08Z</time>
      </trkpt>
      <trkpt lat="45.95385" lon="-1.1043">
        <ele>1.9</ele>
        <time>2025-01-08T13:16:40Z</time>
      </trkpt>
      <trkpt lat="45.9539" lon="-1.10479">
        <ele>1</ele>
        <time>2025-01-08T13:17:08Z</time>
      </trkpt>
      <trkpt lat="45.95398" lon="-1.10523">
        <ele>1</ele>
        <time>2025-01-08T13:17:33Z</time>
      </trkpt>
      <trkpt lat="45.9541" lon="-1.10557">
        <ele>2.8</ele>
        <time>2025-01-08T13:17:54Z</time>
      </trkpt>
      <trkpt lat="45.9543" lon="-1.10594">
        <ele>2.9</ele>
        <time>2025-01-08T13:18:20Z</time>
      </trkpt>
      <trkpt lat="45.95474" lon="-1.10645">
        <ele>2.9</ele>
        <time>2025-01-08T13:19:05Z</time>
      </trkpt>
      <trkpt lat="45.95495" lon="-1.10664">
        <ele>2.8</ele>
        <time>2025-01-08T13:19:25Z</time>
      </trkpt>
      <trkpt lat="45.95558" lon="-1.10713">
        <ele>1</ele>
        <time>2025-01-08T13:20:23Z</time>
      </trkpt>
      <trkpt lat="45.95551" lon="-1.10787">
        <ele>1</ele>
        <time>2025-01-08T13:21:04Z</time>
      </trkpt>
      <trkpt lat="45.95597" lon="-1.1079">
        <ele>1</ele>
        <time>2025-01-08T13:21:41Z</time>
      </trkpt>
      <trkpt lat="45.95622" lon="-1.10774">
        <ele>1</ele>
        <time>2025-01-08T13:22:03Z</time>
      </trkpt>
      <trkpt lat="45.95683" lon="-1.10839">
        <ele>1</ele>
        <time>2025-01-08T13:23:04Z</time>
      </trkpt>
      <trkpt lat="45.95762" lon="-1.10883">
        <ele>2.7</ele>
        <time>2025-01-08T13:24:12Z</time>
      </trkpt>
      <trkpt lat="45.95814" lon="-1.10916">
        <ele>1</ele>
        <time>2025-01-08T13:24:57Z</time>
      </trkpt>
      <trkpt lat="45.95824" lon="-1.10905">
        <ele>1</ele>
        <time>2025-01-08T13:25:07Z</time>
      </trkpt>
      <trkpt lat="45.95843" lon="-1.1091">
        <ele>1</ele>
        <time>2025-01-08T13:25:23Z</time>
      </trkpt>
      <trkpt lat="45.95859" lon="-1.10919">
        <ele>1</ele>
        <time>2025-01-08T13:25:36Z</time>
      </trkpt>
      <trkpt lat="45.95873" lon="-1.10925">
        <ele>2</ele>
        <time>2025-01-08T13:25:48Z</time>
      </trkpt>
      <trkpt lat="45.95887" lon="-1.1093">
        <ele>2</ele>
        <time>2025-01-08T13:26:00Z</time>
      </trkpt>
      <trkpt lat="45.95968" lon="-1.10988">
        <ele>3</ele>
        <time>2025-01-08T13:27:12Z</time>
      </trkpt>
      <trkpt lat="45.96001" lon="-1.11024">
        <ele>3</ele>
        <time>2025-01-08T13:27:45Z</time>
      </trkpt>
      <trkpt lat="45.96036" lon="-1.11073">
        <ele>4</ele>
        <time>2025-01-08T13:28:24Z</time>
      </trkpt>
      <trkpt lat="45.96062" lon="-1.11134">
        <ele>5</ele>
        <time>2025-01-08T13:29:04Z</time>
      </trkpt>
      <trkpt lat="45.96091" lon="-1.11167">
        <ele>5</ele>
        <time>2025-01-08T13:29:34Z</time>
      </trkpt>
      <trkpt lat="45.96108" lon="-1.11192">
        <ele>5</ele>
        <time>2025-01-08T13:29:53Z</time>
      </trkpt>
      <trkpt lat="45.96138" lon="-1.11243">
        <ele>5</ele>
        <time>2025-01-08T13:30:30Z</time>
      </trkpt>
      <trkpt lat="45.96156" lon="-1.11267">
        <ele>5</ele>
        <time>2025-01-08T13:30:50Z</time>
      </trkpt>
      <trkpt lat="45.9616" lon="-1.11286">
        <ele>5</ele>
        <time>2025-01-08T13:31:01Z</time>
      </trkpt>
      <trkpt lat="45.9617" lon="-1.11301">
        <ele>5</ele>
        <time>2025-01-08T13:31:13Z</time>
      </trkpt>
      <trkpt lat="45.96178" lon="-1.11306">
        <ele>5</ele>
        <time>2025-01-08T13:31:20Z</time>
      </trkpt>
      <trkpt lat="45.96184" lon="-1.11323">
        <ele>5</ele>
        <time>2025-01-08T13:31:30Z</time>
      </trkpt>
      <trkpt lat="45.96189" lon="-1.11374">
        <ele>6</ele>
        <time>2025-01-08T13:31:59Z</time>
      </trkpt>
      <trkpt lat="45.9619" lon="-1.11424">
        <ele>6</ele>
        <time>2025-01-08T13:32:27Z</time>
      </trkpt>
      <trkpt lat="45.96187" lon="-1.11443">
        <ele>6</ele>
        <time>2025-01-08T13:32:38Z</time>
      </trkpt>
      <trkpt lat="45.96177" lon="-1.11483">
        <ele>6</ele>
        <time>2025-01-08T13:33:01Z</time>
      </trkpt>
      <trkpt lat="45.96169" lon="-1.1151">
        <ele>6</ele>
        <time>2025-01-08T13:33:18Z</time>
      </trkpt>
      <trkpt lat="45.96174" lon="-1.11527">
        <ele>5</ele>
        <time>2025-01-08T13:33:28Z</time>
      </trkpt>
      <trkpt lat="45.96168" lon="-1.11511">
        <ele>6</ele>
        <time>2025-01-08T13:33:38Z</time>
      </trkpt>
      <trkpt lat="45.96159" lon="-1.11507">
        <ele>6</ele>
        <time>2025-01-08T13:33:46Z</time>
      </trkpt>
      <trkpt lat="45.96153" lon="-1.11503">
        <ele>7</ele>
        <time>2025-01-08T13:33:51Z</time>
      </trkpt>
      <trkpt lat="45.96141" lon="-1.11495">
        <ele>8</ele>
        <time>2025-01-08T13:34:01Z</time>
      </trkpt>
      <trkpt lat="45.9611" lon="-1.1145">
        <ele>10</ele>
        <time>2025-01-08T13:34:37Z</time>
      </trkpt>
      <trkpt lat="45.96099" lon="-1.11445">
        <ele>10</ele>
        <time>2025-01-08T13:34:46Z</time>
      </trkpt>
      <trkpt lat="45.96087" lon="-1.11453">
        <ele>11</ele>
        <time>2025-01-08T13:34:57Z</time>
      </trkpt>
      <trkpt lat="45.96028" lon="-1.11504">
        <ele>12</ele>
        <time>2025-01-08T13:35:52Z</time>
      </trkpt>
      <trkpt lat="45.96019" lon="-1.11512">
        <ele>12</ele>
        <time>2025-01-08T13:36:00Z</time>
      </trkpt>
      <trkpt lat="45.9603" lon="-1.11612">
        <ele>9</ele>
        <time>2025-01-08T13:36:57Z</time>
      </trkpt>
      <trkpt lat="45.96049" lon="-1.11706">
        <ele>8</ele>
        <time>2025-01-08T13:37:51Z</time>
      </trkpt>
      <trkpt lat="45.96086" lon="-1.11811">
        <ele>5</ele>
        <time>2025-01-08T13:38:57Z</time>
      </trkpt>
      <trkpt lat="45.96096" lon="-1.11822">
        <ele>4</ele>
        <time>2025-01-08T13:39:07Z</time>
      </trkpt>
      <trkpt lat="45.96131" lon="-1.11862">
        <ele>3</ele>
        <time>2025-01-08T13:39:42Z</time>
      </trkpt>
      <trkpt lat="45.96136" lon="-1.11873">
        <ele>2</ele>
        <time>2025-01-08T13:39:50Z</time>
      </trkpt>
      <trkpt lat="45.96136" lon="-1.11886">
        <ele>2</ele>
        <time>2025-01-08T13:39:57Z</time>
      </trkpt>
      <trkpt lat="45.96116" lon="-1.11966">
        <ele>2</ele>
        <time>2025-01-08T13:40:44Z</time>
      </trkpt>
      <trkpt lat="45.96107" lon="-1.11994">
        <ele>2</ele>
        <time>2025-01-08T13:41:01Z</time>
      </trkpt>
      <trkpt lat="45.96091" lon="-1.12031">
        <ele>1</ele>
        <time>2025-01-08T13:41:26Z</time>
      </trkpt>
      <trkpt lat="45.96067" lon="-1.12011">
        <ele>2</ele>
        <time>2025-01-08T13:41:48Z</time>
      </trkpt>
      <trkpt lat="45.9606" lon="-1.12034">
        <ele>1</ele>
        <time>2025-01-08T13:42:02Z</time>
      </trkpt>
      <trkpt lat="45.96052" lon="-1.12035">
        <ele>1</ele>
        <time>2025-01-08T13:42:08Z</time>
      </trkpt>
      <trkpt lat="45.96028" lon="-1.12027">
        <ele>2</ele>
        <time>2025-01-08T13:42:28Z</time>
      </trkpt>
      <trkpt lat="45.95932" lon="-1.1201">
        <ele>2</ele>
        <time>2025-01-08T13:43:45Z</time>
      </trkpt>
      <trkpt lat="45.95802" lon="-1.11973">
        <ele>1</ele>
        <time>2025-01-08T13:45:32Z</time>
      </trkpt>
      <trkpt lat="45.95743" lon="-1.11938">
        <ele>1</ele>
        <time>2025-01-08T13:46:23Z</time>
      </trkpt>
      <trkpt lat="45.95811" lon="-1.11843">
        <ele>2</ele>
        <time>2025-01-08T13:47:39Z</time>
      </trkpt>
      <trkpt lat="45.95851" lon="-1.11819">
        <ele>2</ele>
        <time>2025-01-08T13:48:13Z</time>
      </trkpt>
      <trkpt lat="45.958" lon="-1.11835">
        <ele>2</ele>
        <time>2025-01-08T13:48:55Z</time>
      </trkpt>
      <trkpt lat="45.95736" lon="-1.11929">
        <ele>1</ele>
        <time>2025-01-08T13:50:08Z</time>
      </trkpt>
      <trkpt lat="45.95702" lon="-1.11901">
        <ele>3.8</ele>
        <time>2025-01-08T13:50:40Z</time>
      </trkpt>
      <trkpt lat="45.95631" lon="-1.11853">
        <ele>3.9</ele>
        <time>2025-01-08T13:51:42Z</time>
      </trkpt>
      <trkpt lat="45.95623" lon="-1.11845">
        <ele>4.1</ele>
        <time>2025-01-08T13:51:50Z</time>
      </trkpt>
      <trkpt lat="45.95587" lon="-1.1182">
        <ele>1</ele>
        <time>2025-01-08T13:52:22Z</time>
      </trkpt>
      <trkpt lat="45.95572" lon="-1.11806">
        <ele>1</ele>
        <time>2025-01-08T13:52:37Z</time>
      </trkpt>
      <trkpt lat="45.95545" lon="-1.11758">
        <ele>1</ele>
        <time>2025-01-08T13:53:11Z</time>
      </trkpt>
      <trkpt lat="45.95528" lon="-1.11734">
        <ele>1</ele>
        <time>2025-01-08T13:53:30Z</time>
      </trkpt>
      <trkpt lat="45.9551" lon="-1.11718">
        <ele>1</ele>
        <time>2025-01-08T13:53:47Z</time>
      </trkpt>
      <trkpt lat="45.95494" lon="-1.11707">
        <ele>1</ele>
        <time>2025-01-08T13:54:01Z</time>
      </trkpt>
      <trkpt lat="45.95485" lon="-1.11703">
        <ele>1</ele>
        <time>2025-01-08T13:54:09Z</time>
      </trkpt>
      <trkpt lat="45.95474" lon="-1.11706">
        <ele>1</ele>
        <time>2025-01-08T13:54:18Z</time>
      </trkpt>
      <trkpt lat="45.95397" lon="-1.11741">
        <ele>1</ele>
        <time>2025-01-08T13:55:22Z</time>
      </trkpt>
      <trkpt lat="45.95361" lon="-1.11744">
        <ele>2</ele>
        <time>2025-01-08T13:55:51Z</time>
      </trkpt>
      <trkpt lat="45.95345" lon="-1.11736">
        <ele>2</ele>
        <time>2025-01-08T13:56:05Z</time>
      </trkpt>
      <trkpt lat="45.95328" lon="-1.11722">
        <ele>2</ele>
        <time>2025-01-08T13:56:20Z</time>
      </trkpt>
      <trkpt lat="45.95237" lon="-1.11665">
        <ele>1</ele>
        <time>2025-01-08T13:57:40Z</time>
      </trkpt>
      <trkpt lat="45.95227" lon="-1.11649">
        <ele>1</ele>
        <time>2025-01-08T13:57:52Z</time>
      </trkpt>
      <trkpt lat="45.95215" lon="-1.11542">
        <ele>1</ele>
        <time>2025-01-08T13:58:52Z</time>
      </trkpt>
      <trkpt lat="45.95209" lon="-1.11469">
        <ele>1</ele>
        <time>2025-01-08T13:59:33Z</time>
      </trkpt>
      <trkpt lat="45.95209" lon="-1.11446">
        <ele>1</ele>
        <time>2025-01-08T13:59:46Z</time>
      </trkpt>
      <trkpt lat="45.95215" lon="-1.11423">
        <ele>1</ele>
        <time>2025-01-08T14:00:00Z</time>
      </trkpt>
      <trkpt lat="45.95235" lon="-1.11392">
        <ele>1</ele>
        <time>2025-01-08T14:00:23Z</time>
      </trkpt>
      <trkpt lat="45.9528" lon="-1.11315">
        <ele>1</ele>
        <time>2025-01-08T14:01:19Z</time>
      </trkpt>
      <trkpt lat="45.95287" lon="-1.11293">
        <ele>1</ele>
        <time>2025-01-08T14:01:33Z</time>
      </trkpt>
      <trkpt lat="45.95292" lon="-1.11208">
        <ele>1</ele>
        <time>2025-01-08T14:02:20Z</time>
      </trkpt>
      <trkpt lat="45.95303" lon="-1.11177">
        <ele>1</ele>
        <time>2025-01-08T14:02:40Z</time>
      </trkpt>
      <trkpt lat="45.9531" lon="-1.11167">
        <ele>1</ele>
        <time>2025-01-08T14:02:47Z</time>
      </trkpt>
      <trkpt lat="45.95317" lon="-1.11163">
        <ele>1</ele>
        <time>2025-01-08T14:02:53Z</time>
      </trkpt>
      <trkpt lat="45.95397" lon="-1.1116">
        <ele>2</ele>
        <time>2025-01-08T14:03:58Z</time>
      </trkpt>
      <trkpt lat="45.95456" lon="-1.11163">
        <ele>2</ele>
        <time>2025-01-08T14:04:45Z</time>
      </trkpt>
      <trkpt lat="45.95468" lon="-1.1116">
        <ele>2</ele>
        <time>2025-01-08T14:04:55Z</time>
      </trkpt>
      <trkpt lat="45.95479" lon="-1.11147">
        <ele>2</ele>
        <time>2025-01-08T14:05:06Z</time>
      </trkpt>
      <trkpt lat="45.95482" lon="-1.11137">
        <ele>2</ele>
        <time>2025-01-08T14:05:12Z</time>
      </trkpt>
      <trkpt lat="45.95483" lon="-1.11035">
        <ele>2</ele>
        <time>2025-01-08T14:06:09Z</time>
      </trkpt>
      <trkpt lat="45.95486" lon="-1.11012">
        <ele>2</ele>
        <time>2025-01-08T14:06:22Z</time>
      </trkpt>
      <trkpt lat="45.95485" lon="-1.10978">
        <ele>2</ele>
        <time>2025-01-08T14:06:41Z</time>
      </trkpt>
      <trkpt lat="45.95474" lon="-1.10926">
        <ele>1</ele>
        <time>2025-01-08T14:07:11Z</time>
      </trkpt>
      <trkpt lat="45.95464" lon="-1.10875">
        <ele>1</ele>
        <time>2025-01-08T14:07:41Z</time>
      </trkpt>
      <trkpt lat="45.95427" lon="-1.10609">
        <ele>3.3</ele>
        <time>2025-01-08T14:10:12Z</time>
      </trkpt>
      <trkpt lat="45.95426" lon="-1.10592">
        <ele>2.9</ele>
        <time>2025-01-08T14:10:21Z</time>
      </trkpt>
      <trkpt lat="45.95399" lon="-1.1054">
        <ele>1</ele>
        <time>2025-01-08T14:10:57Z</time>
      </trkpt>
      <trkpt lat="45.95385" lon="-1.10467">
        <ele>1</ele>
        <time>2025-01-08T14:11:39Z</time>
      </trkpt>
      <trkpt lat="45.95379" lon="-1.10392">
        <ele>1.6</ele>
        <time>2025-01-08T14:12:21Z</time>
      </trkpt>
      <trkpt lat="45.95359" lon="-1.10285">
        <ele>1.9</ele>
        <time>2025-01-08T14:13:23Z</time>
      </trkpt>
      <trkpt lat="45.95348" lon="-1.10235">
        <ele>1</ele>
        <time>2025-01-08T14:13:52Z</time>
      </trkpt>
      <trkpt lat="45.95334" lon="-1.10199">
        <ele>1.8</ele>
        <time>2025-01-08T14:14:15Z</time>
      </trkpt>
      <trkpt lat="45.95313" lon="-1.10165">
        <ele>1</ele>
        <time>2025-01-08T14:14:40Z</time>
      </trkpt>
      <trkpt lat="45.95277" lon="-1.10056">
        <ele>1</ele>
        <time>2025-01-08T14:15:48Z</time>
      </trkpt>
      <trkpt lat="45.95261" lon="-1.09999">
        <ele>1</ele>
        <time>2025-01-08T14:16:22Z</time>
      </trkpt>
      <trkpt lat="45.95228" lon="-1.09867">
        <ele>1</ele>
        <time>2025-01-08T14:17:40Z</time>
      </trkpt>
      <trkpt lat="45.95165" lon="-1.09703">
        <ele>1</ele>
        <time>2025-01-08T14:19:24Z</time>
      </trkpt>
      <trkpt lat="45.951" lon="-1.09578">
        <ele>1</ele>
        <time>2025-01-08T14:20:51Z</time>
      </trkpt>
      <trkpt lat="45.95068" lon="-1.09533">
        <ele>1</ele>
        <time>2025-01-08T14:21:27Z</time>
      </trkpt>
      <trkpt lat="45.95045" lon="-1.09507">
        <ele>1</ele>
        <time>2025-01-08T14:21:50Z</time>
      </trkpt>
      <trkpt lat="45.95024" lon="-1.09487">
        <ele>1.1</ele>
        <time>2025-01-08T14:22:11Z</time>
      </trkpt>
      <trkpt lat="45.94997" lon="-1.09472">
        <ele>1.9</ele>
        <time>2025-01-08T14:22:34Z</time>
      </trkpt>
      <trkpt lat="45.94975" lon="-1.0946">
        <ele>1.1</ele>
        <time>2025-01-08T14:22:53Z</time>
      </trkpt>
      <trkpt lat="45.94951" lon="-1.09461">
        <ele>1</ele>
        <time>2025-01-08T14:23:12Z</time>
      </trkpt>
      <trkpt lat="45.94928" lon="-1.09501">
        <ele>1</ele>
        <time>2025-01-08T14:23:41Z</time>
      </trkpt>
      <trkpt lat="45.94936" lon="-1.09524">
        <ele>1</ele>
        <time>2025-01-08T14:23:55Z</time>
      </trkpt>
      <trkpt lat="45.94913" lon="-1.0965">
        <ele>2</ele>
        <time>2025-01-08T14:25:08Z</time>
      </trkpt>
      <trkpt lat="45.94899" lon="-1.09671">
        <ele>2</ele>
        <time>2025-01-08T14:25:24Z</time>
      </trkpt>
      <trkpt lat="45.94872" lon="-1.09674">
        <ele>2</ele>
        <time>2025-01-08T14:25:45Z</time>
      </trkpt>
      <trkpt lat="45.94856" lon="-1.09683">
        <ele>2</ele>
        <time>2025-01-08T14:25:59Z</time>
      </trkpt>
      <trkpt lat="45.94815" lon="-1.09708">
        <ele>2</ele>
        <time>2025-01-08T14:26:35Z</time>
      </trkpt>
      <trkpt lat="45.94767" lon="-1.09726">
        <ele>2</ele>
        <time>2025-01-08T14:27:15Z</time>
      </trkpt>
      <trkpt lat="45.94728" lon="-1.0974">
        <ele>2</ele>
        <time>2025-01-08T14:27:47Z</time>
      </trkpt>
      <trkpt lat="45.94688" lon="-1.09765">
        <ele>2</ele>
        <time>2025-01-08T14:28:22Z</time>
      </trkpt>
      <trkpt lat="45.94637" lon="-1.09803">
        <ele>2</ele>
        <time>2025-01-08T14:29:08Z</time>
      </trkpt>
      <trkpt lat="45.94588" lon="-1.09853">
        <ele>2</ele>
        <time>2025-01-08T14:29:56Z</time>
      </trkpt>
      <trkpt lat="45.94588" lon="-1.09883">
        <ele>1</ele>
        <time>2025-01-08T14:30:12Z</time>
      </trkpt>
      <trkpt lat="45.94555" lon="-1.09923">
        <ele>1</ele>
        <time>2025-01-08T14:30:47Z</time>
      </trkpt>
      <trkpt lat="45.94533" lon="-1.09977">
        <ele>1</ele>
        <time>2025-01-08T14:31:22Z</time>
      </trkpt>
      <trkpt lat="45.9452" lon="-1.09997">
        <ele>2</ele>
        <time>2025-01-08T14:31:37Z</time>
      </trkpt>
      <trkpt lat="45.94512" lon="-1.10006">
        <ele>2</ele>
        <time>2025-01-08T14:31:45Z</time>
      </trkpt>
      <trkpt lat="45.94507" lon="-1.09993">
        <ele>2</ele>
        <time>2025-01-08T14:31:54Z</time>
      </trkpt>
      <trkpt lat="45.9449" lon="-1.09992">
        <ele>2</ele>
        <time>2025-01-08T14:32:07Z</time>
      </trkpt>
      <trkpt lat="45.94482" lon="-1.0999">
        <ele>2</ele>
        <time>2025-01-08T14:32:14Z</time>
      </trkpt>
      <trkpt lat="45.94469" lon="-1.09952">
        <ele>2</ele>
        <time>2025-01-08T14:32:37Z</time>
      </trkpt>
      <trkpt lat="45.94448" lon="-1.09912">
        <ele>2</ele>
        <time>2025-01-08T14:33:05Z</time>
      </trkpt>
      <trkpt lat="45.94448" lon="-1.09884">
        <ele>2</ele>
        <time>2025-01-08T14:33:21Z</time>
      </trkpt>
      <trkpt lat="45.94461" lon="-1.09849">
        <ele>3</ele>
        <time>2025-01-08T14:33:43Z</time>
      </trkpt>
      <trkpt lat="45.94463" lon="-1.09812">
        <ele>3</ele>
        <time>2025-01-08T14:34:03Z</time>
      </trkpt>
    </trkseg>
  </trk>
</gpx>